createdAt,value
2024-02-02T00:01:52.725Z,68.24
2024-02-02T00:04:20.819Z,68.33
2024-02-02T00:06:49.420Z,68.54
2024-02-02T00:09:17.745Z,68.51
2024-02-02T00:11:45.812Z,68.62
2024-02-02T00:14:13.992Z,68.55
2024-02-02T00:16:42.057Z,68.73
2024-02-02T00:19:10.234Z,68.89
2024-02-02T00:21:38.319Z,69.00
2024-02-02T00:24:06.319Z,69.14
2024-02-02T00:26:34.401Z,69.23
2024-02-02T00:29:02.626Z,69.34
2024-02-02T00:31:30.686Z,69.32
2024-02-02T00:33:58.926Z,69.46
2024-02-02T00:36:27.187Z,69.64
2024-02-02T00:38:55.379Z,69.42
2024-02-02T00:41:23.481Z,69.48
2024-02-02T00:43:51.785Z,69.31
2024-02-02T00:46:19.932Z,69.15
2024-02-02T00:48:48.100Z,69.03
2024-02-02T00:51:16.335Z,69.02
2024-02-02T00:53:44.333Z,68.98
2024-02-02T00:56:12.563Z,68.98
2024-02-02T00:58:40.722Z,68.92
2024-02-02T01:01:09.216Z,68.99
2024-02-02T01:03:38.934Z,69.08
2024-02-02T01:06:07.790Z,69.19
2024-02-02T01:08:36.035Z,68.89
2024-02-02T01:11:04.596Z,68.89
2024-02-02T01:13:32.697Z,68.66
2024-02-02T01:16:00.958Z,68.30
2024-02-02T01:18:29.186Z,68.46
2024-02-02T01:20:57.386Z,68.25
2024-02-02T01:23:25.892Z,68.33
2024-02-02T01:25:54.058Z,68.17
2024-02-02T01:28:22.129Z,68.21
2024-02-02T01:30:50.203Z,67.90
2024-02-02T01:33:18.667Z,67.82
2024-02-02T01:35:46.872Z,67.97
2024-02-02T01:38:15.206Z,67.93
2024-02-02T01:40:43.292Z,68.01
2024-02-02T01:43:11.358Z,68.00
2024-02-02T01:45:39.435Z,67.95
2024-02-02T01:48:10.707Z,68.19
2024-02-02T01:50:38.984Z,68.15
2024-02-02T01:53:07.137Z,68.32
2024-02-02T01:55:35.657Z,68.27
2024-02-02T01:58:03.886Z,68.44
2024-02-02T02:00:32.140Z,68.33
2024-02-02T02:03:00.551Z,68.21
2024-02-02T02:05:29.782Z,68.33
2024-02-02T02:07:57.893Z,68.59
2024-02-02T02:10:26.714Z,68.53
2024-02-02T02:12:55.133Z,68.38
2024-02-02T02:15:25.061Z,68.50
2024-02-02T02:17:53.686Z,68.66
2024-02-02T02:20:23.914Z,68.63
2024-02-02T02:22:52.465Z,68.81
2024-02-02T02:25:21.153Z,68.78
2024-02-02T02:27:49.593Z,68.76
2024-02-02T02:30:17.647Z,68.94
2024-02-02T02:32:45.852Z,69.04
2024-02-02T02:35:14.040Z,69.14
2024-02-02T02:37:42.079Z,68.96
2024-02-02T02:40:10.904Z,68.93
2024-02-02T02:42:39.161Z,69.07
2024-02-02T02:45:07.886Z,68.95
2024-02-02T02:47:36.192Z,68.64
2024-02-02T02:50:05.530Z,68.65
2024-02-02T02:52:33.590Z,68.67
2024-02-02T02:55:01.549Z,68.47
2024-02-02T02:57:29.653Z,68.62
2024-02-02T02:59:57.840Z,68.37
2024-02-02T03:02:25.900Z,68.32
2024-02-02T03:04:53.974Z,68.33
2024-02-02T03:07:22.058Z,68.39
2024-02-02T03:09:50.224Z,68.41
2024-02-02T03:12:18.388Z,68.46
2024-02-02T03:14:46.457Z,68.28
2024-02-02T03:17:14.445Z,68.60
2024-02-02T03:19:42.622Z,68.53
2024-02-02T03:22:10.872Z,68.51
2024-02-02T03:24:39.012Z,68.49
2024-02-02T03:27:07.745Z,68.57
2024-02-02T03:29:35.738Z,68.47
2024-02-02T03:32:04.782Z,68.61
2024-02-02T03:34:32.928Z,68.67
2024-02-02T03:37:02.265Z,68.65
2024-02-02T03:39:30.494Z,68.82
2024-02-02T03:41:58.849Z,68.79
2024-02-02T03:44:27.086Z,68.94
2024-02-02T03:46:55.128Z,68.89
2024-02-02T03:49:23.194Z,68.70
2024-02-02T03:51:51.291Z,68.88
2024-02-02T03:54:19.332Z,68.95
2024-02-02T03:56:47.444Z,68.86
2024-02-02T03:59:15.745Z,68.93
2024-02-02T04:01:43.891Z,68.99
2024-02-02T04:04:12.185Z,69.19
2024-02-02T04:06:40.235Z,69.42
2024-02-02T04:09:09.912Z,69.28
2024-02-02T04:11:38.496Z,69.39
2024-02-02T04:14:09.467Z,69.40
2024-02-02T04:16:37.522Z,69.45
2024-02-02T04:19:05.707Z,69.15
2024-02-02T04:21:34.052Z,69.27
2024-02-02T04:24:02.224Z,69.28
2024-02-02T04:26:30.281Z,69.24
2024-02-02T04:28:58.226Z,69.15
2024-02-02T04:31:26.265Z,69.10
2024-02-02T04:33:54.484Z,69.16
2024-02-02T04:36:22.497Z,68.93
2024-02-02T04:38:50.605Z,68.68
2024-02-02T04:41:18.569Z,68.42
2024-02-02T04:43:46.565Z,68.47
2024-02-02T04:46:14.684Z,68.59
2024-02-02T04:48:42.914Z,68.53
2024-02-02T04:51:11.062Z,68.76
2024-02-02T04:53:39.208Z,68.43
2024-02-02T04:56:07.291Z,68.29
2024-02-02T04:58:35.294Z,68.31
2024-02-02T05:01:03.410Z,68.32
2024-02-02T05:03:33.607Z,68.16
2024-02-02T05:06:01.878Z,68.26
2024-02-02T05:08:30.078Z,68.33
2024-02-02T05:10:58.041Z,68.37
2024-02-02T05:13:26.502Z,68.43
2024-02-02T05:15:54.709Z,68.41
2024-02-02T05:18:22.973Z,68.66
2024-02-02T05:20:51.386Z,68.73
2024-02-02T05:23:19.513Z,68.72
2024-02-02T05:25:47.552Z,68.71
2024-02-02T05:28:15.662Z,68.67
2024-02-02T05:30:44.167Z,68.63
2024-02-02T05:33:12.468Z,68.57
2024-02-02T05:35:40.741Z,68.50
2024-02-02T05:38:08.987Z,68.47
2024-02-02T05:40:37.221Z,68.27
2024-02-02T05:43:06.163Z,68.19
2024-02-02T05:45:34.214Z,68.16
2024-02-02T05:48:02.503Z,68.19
2024-02-02T05:50:30.792Z,68.02
2024-02-02T05:52:58.787Z,68.14
2024-02-02T05:55:26.909Z,68.34
2024-02-02T05:57:55.178Z,68.22
2024-02-02T06:00:23.366Z,68.34
2024-02-02T06:02:51.475Z,68.46
2024-02-02T06:05:19.518Z,68.40
2024-02-02T06:07:47.917Z,68.45
2024-02-02T06:10:16.252Z,68.39
2024-02-02T06:12:44.554Z,68.52
2024-02-02T06:15:12.990Z,68.70
2024-02-02T06:17:41.201Z,68.66
2024-02-02T06:20:10.201Z,68.52
2024-02-02T06:22:38.244Z,68.90
2024-02-02T06:25:06.614Z,68.82
2024-02-02T06:27:34.842Z,68.94
2024-02-02T06:30:05.045Z,69.12
2024-02-02T06:32:33.525Z,69.11
2024-02-02T06:35:02.010Z,69.36
2024-02-02T06:37:30.557Z,69.60
2024-02-02T06:39:59.204Z,69.52
2024-02-02T06:42:27.866Z,69.54
2024-02-02T06:44:58.902Z,69.49
2024-02-02T06:47:27.401Z,69.52
2024-02-02T06:49:55.830Z,69.59
2024-02-02T06:52:24.097Z,69.44
2024-02-02T06:54:52.386Z,69.55
2024-02-02T06:57:21.025Z,69.52
2024-02-02T06:59:50.675Z,69.54
2024-02-02T07:02:21.516Z,69.51
2024-02-02T07:04:49.940Z,69.94
2024-02-02T07:07:18.842Z,69.90
2024-02-02T07:09:57.697Z,70.13
2024-02-02T07:12:46.941Z,70.03
2024-02-02T07:15:19.718Z,70.12
2024-02-02T07:17:48.547Z,70.22
2024-02-02T07:20:33.598Z,70.52
2024-02-02T07:23:05.241Z,70.45
2024-02-02T07:25:38.545Z,70.45
2024-02-02T07:28:35.852Z,70.39
2024-02-02T07:31:05.421Z,70.00
2024-02-02T07:33:45.072Z,70.00
2024-02-02T07:36:33.123Z,70.00
2024-02-02T07:39:02.340Z,69.96
2024-02-02T07:41:31.265Z,70.03
2024-02-02T07:44:01.420Z,70.04
2024-02-02T07:46:30.187Z,69.94
2024-02-02T07:48:58.673Z,69.88
2024-02-02T07:51:28.281Z,70.00
2024-02-02T07:53:56.655Z,70.65
2024-02-02T07:56:25.989Z,71.55
2024-02-02T07:58:54.677Z,72.37
2024-02-02T08:01:22.762Z,72.93
2024-02-02T08:03:51.047Z,73.57
2024-02-02T08:06:19.423Z,74.11
2024-02-02T08:08:47.619Z,74.57
2024-02-02T08:11:15.714Z,75.05
2024-02-02T08:13:44.394Z,75.01
2024-02-02T08:16:12.547Z,75.39
2024-02-02T08:18:40.969Z,75.33
2024-02-02T08:21:11.453Z,75.44
2024-02-02T08:23:39.758Z,75.59
2024-02-02T08:26:07.888Z,75.71
2024-02-02T08:28:45.359Z,75.73
2024-02-02T08:31:19.572Z,75.76
2024-02-02T08:33:47.753Z,75.90
2024-02-02T08:36:16.343Z,75.97
2024-02-02T08:38:44.479Z,76.13
2024-02-02T08:41:13.058Z,75.99
2024-02-02T08:43:43.236Z,75.92
2024-02-02T08:46:14.528Z,75.88
2024-02-02T08:48:53.530Z,75.99
2024-02-02T08:51:24.975Z,76.02
2024-02-02T08:54:17.622Z,76.41
2024-02-02T08:57:25.426Z,76.35
2024-02-02T08:59:54.937Z,76.42
2024-02-02T09:02:43.103Z,76.68
2024-02-02T09:05:19.734Z,76.77
2024-02-02T09:07:53.458Z,77.11
2024-02-02T09:10:47.300Z,77.22
2024-02-02T09:13:24.554Z,77.66
2024-02-02T09:15:53.227Z,77.80
2024-02-02T09:18:40.966Z,77.87
2024-02-02T09:21:10.309Z,78.19
2024-02-02T09:23:40.629Z,78.34
2024-02-02T09:26:12.620Z,78.28
2024-02-02T09:28:43.251Z,78.26
2024-02-02T09:31:39.012Z,78.39
2024-02-02T09:34:10.660Z,78.58
2024-02-02T09:36:41.295Z,78.69
2024-02-02T09:39:42.648Z,78.62
2024-02-02T09:42:32.178Z,78.68
2024-02-02T09:45:17.597Z,78.67
2024-02-02T09:47:53.781Z,78.67
2024-02-02T09:50:44.884Z,78.22
2024-02-02T09:53:26.080Z,78.98
2024-02-02T09:56:02.595Z,79.35
2024-02-02T09:58:52.588Z,79.28
2024-02-02T10:01:38.871Z,79.25
2024-02-02T10:04:40.189Z,79.16
2024-02-02T10:07:33.030Z,79.31
2024-02-02T10:10:04.011Z,79.15
2024-02-02T10:12:51.133Z,79.29
2024-02-02T10:16:05.403Z,79.16
2024-02-02T10:19:03.530Z,79.02
2024-02-02T10:21:49.248Z,79.30
2024-02-02T10:24:46.504Z,79.23
2024-02-02T10:27:37.510Z,79.07
2024-02-02T10:30:14.720Z,79.39
2024-02-02T10:33:10.178Z,79.29
2024-02-02T10:36:05.724Z,78.92
2024-02-02T10:38:36.846Z,78.43
2024-02-02T10:41:30.996Z,77.87
2024-02-02T10:44:13.879Z,77.76
2024-02-02T10:47:05.468Z,77.43
2024-02-02T10:50:03.693Z,77.44
2024-02-02T10:53:00.366Z,77.23
2024-02-02T10:55:39.430Z,77.15
2024-02-02T10:58:35.079Z,77.00
2024-02-02T11:01:15.360Z,76.67
2024-02-02T11:04:16.279Z,76.38
2024-02-02T11:06:51.721Z,76.35
2024-02-02T11:09:41.060Z,75.91
2024-02-02T11:12:17.889Z,75.62
2024-02-02T11:14:56.105Z,75.39
2024-02-02T11:17:35.043Z,75.11
2024-02-02T11:20:18.370Z,74.98
2024-02-02T11:22:49.388Z,74.97
2024-02-02T11:25:31.019Z,74.90
2024-02-02T11:28:03.513Z,74.99
2024-02-02T11:30:48.151Z,74.99
2024-02-02T11:33:57.756Z,74.94
2024-02-02T11:36:55.694Z,74.94
2024-02-02T11:39:32.502Z,75.08
2024-02-02T11:42:07.990Z,74.99
2024-02-02T11:44:37.850Z,74.97
2024-02-02T11:47:06.682Z,74.76
2024-02-02T11:49:39.800Z,74.66
2024-02-02T11:52:23.169Z,74.53
2024-02-02T11:55:09.049Z,74.43
2024-02-02T11:57:45.273Z,74.39
2024-02-02T12:00:24.890Z,74.19
2024-02-02T12:03:17.524Z,74.02
2024-02-02T12:06:22.352Z,73.80
2024-02-02T12:08:59.668Z,73.35
2024-02-02T12:11:43.719Z,73.37
2024-02-02T12:14:25.370Z,73.28
2024-02-02T12:16:53.676Z,73.24
2024-02-02T12:19:22.330Z,73.25
2024-02-02T12:21:50.718Z,72.68
2024-02-02T12:24:19.211Z,72.71
2024-02-02T12:26:49.583Z,72.61
2024-02-02T12:29:18.115Z,72.51
2024-02-02T12:31:46.387Z,72.18
2024-02-02T12:34:14.778Z,72.02
2024-02-02T12:36:43.010Z,72.04
2024-02-02T12:39:11.397Z,71.89
2024-02-02T12:41:39.466Z,71.60
2024-02-02T12:44:08.627Z,71.45
2024-02-02T12:46:47.075Z,71.46
2024-02-02T12:49:15.511Z,71.49
2024-02-02T12:51:45.083Z,71.45
2024-02-02T12:54:13.392Z,71.67
2024-02-02T12:56:41.537Z,71.54
2024-02-02T12:59:18.087Z,71.51
2024-02-02T13:01:47.090Z,71.38
2024-02-02T13:04:16.346Z,71.54
2024-02-02T13:06:46.522Z,71.68
2024-02-02T13:09:20.957Z,71.91
2024-02-02T13:11:49.577Z,72.14
2024-02-02T13:14:35.568Z,72.47
2024-02-02T13:17:10.539Z,72.92
2024-02-02T13:19:49.395Z,73.23
2024-02-02T13:22:20.769Z,73.28
2024-02-02T13:24:50.384Z,73.72
2024-02-02T13:27:20.356Z,74.06
2024-02-02T13:29:57.993Z,74.41
2024-02-02T13:32:28.688Z,74.80
2024-02-02T13:35:00.743Z,75.03
2024-02-02T13:37:37.938Z,75.10
2024-02-02T13:40:11.306Z,75.46
2024-02-02T13:42:43.638Z,75.84
2024-02-02T13:45:16.850Z,76.04
2024-02-02T13:47:54.473Z,76.37
2024-02-02T13:50:31.654Z,76.68
2024-02-02T13:53:00.102Z,76.95
2024-02-02T13:55:31.190Z,77.27
2024-02-02T13:57:59.240Z,77.14
2024-02-02T14:00:33.885Z,77.17
2024-02-02T14:03:09.586Z,77.28
2024-02-02T14:05:40.996Z,77.35
2024-02-02T14:08:09.361Z,77.61
2024-02-02T14:10:48.234Z,77.63
2024-02-02T14:13:23.177Z,77.39
2024-02-02T14:15:53.910Z,77.46
2024-02-02T14:18:22.476Z,77.46
2024-02-02T14:20:50.587Z,77.58
2024-02-02T14:23:18.912Z,77.53
2024-02-02T14:25:46.990Z,77.48
2024-02-02T14:28:15.592Z,77.56
2024-02-02T14:30:45.058Z,77.52
2024-02-02T14:33:22.112Z,77.52
2024-02-02T14:35:56.519Z,77.53
2024-02-02T14:38:24.642Z,77.55
2024-02-02T14:40:54.561Z,77.74
2024-02-02T14:43:22.840Z,78.07
2024-02-02T14:45:51.225Z,78.03
2024-02-02T14:48:20.774Z,78.07
2024-02-02T14:50:49.203Z,78.26
2024-02-02T14:53:17.190Z,78.25
2024-02-02T14:55:45.772Z,78.18
2024-02-02T14:58:14.811Z,78.46
2024-02-02T15:00:46.421Z,78.39
2024-02-02T15:03:14.942Z,78.93
2024-02-02T15:05:44.033Z,79.03
2024-02-02T15:08:13.411Z,79.02
2024-02-02T15:10:42.348Z,79.03
2024-02-02T15:13:11.832Z,78.88
2024-02-02T15:15:40.078Z,78.95
2024-02-02T15:18:08.664Z,79.17
2024-02-02T15:20:37.004Z,79.26
2024-02-02T15:23:05.478Z,79.25
2024-02-02T15:25:33.641Z,79.03
2024-02-02T15:28:02.011Z,79.07
2024-02-02T15:30:30.131Z,78.89
2024-02-02T15:32:58.420Z,79.13
2024-02-02T15:35:26.607Z,79.14
2024-02-02T15:37:55.071Z,79.17
2024-02-02T15:40:23.076Z,79.21
2024-02-02T15:42:52.094Z,79.16
2024-02-02T15:45:20.425Z,79.34
2024-02-02T15:47:51.792Z,79.56
2024-02-02T15:50:20.406Z,79.71
2024-02-02T15:52:49.072Z,79.88
2024-02-02T15:55:17.203Z,80.10
2024-02-02T15:57:52.089Z,80.14
2024-02-02T16:00:21.118Z,80.56
2024-02-02T16:02:49.634Z,80.38
2024-02-02T16:05:22.672Z,80.63
2024-02-02T16:07:50.873Z,80.80
2024-02-02T16:10:19.248Z,80.90
2024-02-02T16:12:47.505Z,81.11
2024-02-02T16:15:15.790Z,81.32
2024-02-02T16:17:43.989Z,81.34
2024-02-02T16:20:13.009Z,81.56
2024-02-02T16:22:45.101Z,81.93
2024-02-02T16:25:16.382Z,82.02
2024-02-02T16:27:44.564Z,82.11
2024-02-02T16:30:13.855Z,82.44
2024-02-02T16:32:42.041Z,82.63
2024-02-02T16:35:10.356Z,82.93
2024-02-02T16:37:40.052Z,82.86
2024-02-02T16:40:11.714Z,83.02
2024-02-02T16:42:44.249Z,83.09
2024-02-02T16:45:13.455Z,83.24
2024-02-02T16:47:41.561Z,83.24
2024-02-02T16:50:10.288Z,83.51
2024-02-02T16:52:38.412Z,83.71
2024-02-02T16:55:06.904Z,83.74
2024-02-02T16:57:35.678Z,83.79
2024-02-02T17:00:05.904Z,83.97
2024-02-02T17:02:36.268Z,83.93
2024-02-02T17:05:08.105Z,83.98
2024-02-02T17:07:36.507Z,84.17
2024-02-02T17:10:05.721Z,84.17
2024-02-02T17:12:33.709Z,84.18
2024-02-02T17:15:01.755Z,84.54
2024-02-02T17:17:30.037Z,84.75
2024-02-02T17:19:59.891Z,84.80
2024-02-02T17:22:28.178Z,85.19
2024-02-02T17:24:56.368Z,85.43
2024-02-02T17:27:25.041Z,85.61
2024-02-02T17:29:53.287Z,85.37
2024-02-02T17:32:21.464Z,85.83
2024-02-02T17:34:50.322Z,85.91
2024-02-02T17:37:18.456Z,86.10
2024-02-02T17:39:46.807Z,86.21
2024-02-02T17:42:15.259Z,86.48
2024-02-02T17:44:43.449Z,86.67
2024-02-02T17:47:11.667Z,86.99
2024-02-02T17:49:45.670Z,87.17
2024-02-02T17:52:17.600Z,87.14
2024-02-02T17:54:46.171Z,86.92
2024-02-02T17:57:14.404Z,86.96
2024-02-02T17:59:42.615Z,86.95
2024-02-02T18:02:11.418Z,86.98
2024-02-02T18:04:39.767Z,87.12
2024-02-02T18:07:09.788Z,87.13
2024-02-02T18:09:43.009Z,87.33
2024-02-02T18:12:14.954Z,87.14
2024-02-02T18:14:43.108Z,87.16
2024-02-02T18:17:15.571Z,87.67
2024-02-02T18:19:44.500Z,87.97
2024-02-02T18:22:12.668Z,88.11
2024-02-02T18:24:40.923Z,88.08
2024-02-02T18:27:09.177Z,88.14
2024-02-02T18:29:37.743Z,88.31
2024-02-02T18:32:05.933Z,88.36
2024-02-02T18:34:35.449Z,88.53
2024-02-02T18:37:03.656Z,88.41
2024-02-02T18:39:31.757Z,88.37
2024-02-02T18:42:05.444Z,88.32
2024-02-02T18:44:34.302Z,88.50
2024-02-02T18:47:03.150Z,88.65
2024-02-02T18:49:31.714Z,88.75
2024-02-02T18:51:59.957Z,88.62
2024-02-02T18:54:28.093Z,88.44
2024-02-02T18:56:56.410Z,88.56
2024-02-02T18:59:24.334Z,88.83
2024-02-02T19:01:52.697Z,88.68
2024-02-02T19:04:20.819Z,88.94
2024-02-02T19:06:48.943Z,89.03
2024-02-02T19:09:17.866Z,88.78
2024-02-02T19:11:47.187Z,88.88
2024-02-02T19:14:15.470Z,88.87
2024-02-02T19:16:43.634Z,88.83
2024-02-02T19:19:11.918Z,88.91
2024-02-02T19:21:41.259Z,88.96
2024-02-02T19:24:09.541Z,89.13
2024-02-02T19:26:37.685Z,89.26
2024-02-02T19:29:06.033Z,89.47
2024-02-02T19:31:36.649Z,89.57
2024-02-02T19:34:04.908Z,89.53
2024-02-02T19:36:33.138Z,89.45
2024-02-02T19:39:01.809Z,89.63
2024-02-02T19:41:31.992Z,89.87
2024-02-02T19:44:00.442Z,89.92
2024-02-02T19:46:30.571Z,90.05
2024-02-02T19:49:00.663Z,90.19
2024-02-02T19:51:29.807Z,90.46
2024-02-02T19:53:58.033Z,90.55
2024-02-02T19:56:26.144Z,90.62
2024-02-02T19:58:54.203Z,90.77
2024-02-02T20:01:23.130Z,90.95
2024-02-02T20:03:51.906Z,90.95
2024-02-02T20:06:21.131Z,90.97
2024-02-02T20:08:50.317Z,90.97
2024-02-02T20:11:20.464Z,91.00
2024-02-02T20:13:49.224Z,91.03
2024-02-02T20:16:19.361Z,90.94
2024-02-02T20:18:48.688Z,90.94
2024-02-02T20:21:19.066Z,91.11
2024-02-02T20:23:49.685Z,90.84
2024-02-02T20:26:21.371Z,90.95
2024-02-02T20:28:51.172Z,91.05
2024-02-02T20:31:19.816Z,91.17
2024-02-02T20:33:52.490Z,91.04
2024-02-02T20:36:23.885Z,90.94
2024-02-02T20:38:53.088Z,90.95
2024-02-02T20:41:26.653Z,91.11
2024-02-02T20:43:55.594Z,91.13
2024-02-02T20:46:23.962Z,91.03
2024-02-02T20:48:52.325Z,91.31
2024-02-02T20:51:20.743Z,91.32
2024-02-02T20:53:48.879Z,91.19
2024-02-02T20:56:16.941Z,91.12
2024-02-02T20:58:45.058Z,91.12
2024-02-02T21:01:13.240Z,90.92
2024-02-02T21:03:41.527Z,91.10
2024-02-02T21:06:09.772Z,90.96
2024-02-02T21:08:38.946Z,90.95
2024-02-02T21:11:07.495Z,90.92
2024-02-02T21:13:35.684Z,90.96
2024-02-02T21:16:05.188Z,90.93
2024-02-02T21:18:33.916Z,91.02
2024-02-02T21:21:02.285Z,90.91
2024-02-02T21:23:30.953Z,90.77
2024-02-02T21:25:59.047Z,90.78
2024-02-02T21:28:27.082Z,90.69
2024-02-02T21:30:59.197Z,90.66
2024-02-02T21:33:28.447Z,90.73
2024-02-02T21:35:58.344Z,90.62
2024-02-02T21:38:27.864Z,90.74
2024-02-02T21:40:56.042Z,90.73
2024-02-02T21:43:24.065Z,90.71
2024-02-02T21:45:52.267Z,90.65
2024-02-02T21:48:20.558Z,90.82
2024-02-02T21:50:49.088Z,90.76
2024-02-02T21:53:17.820Z,90.56
2024-02-02T21:55:48.866Z,90.47
2024-02-02T21:58:17.090Z,90.64
2024-02-02T22:00:45.224Z,90.80
2024-02-02T22:03:13.372Z,90.63
2024-02-02T22:05:41.731Z,90.73
2024-02-02T22:08:11.872Z,90.88
2024-02-02T22:10:39.916Z,90.80
2024-02-02T22:13:08.122Z,90.87
2024-02-02T22:15:36.567Z,90.92
2024-02-02T22:18:05.559Z,91.00
2024-02-02T22:20:33.660Z,90.89
2024-02-02T22:23:01.730Z,90.90
2024-02-02T22:25:29.815Z,90.88
2024-02-02T22:30:28.513Z,90.94
2024-02-02T22:32:58.270Z,90.97
2024-02-02T22:35:26.693Z,90.70
2024-02-02T22:37:54.834Z,90.72
2024-02-02T22:40:23.040Z,90.68
2024-02-02T22:42:51.147Z,90.58
2024-02-02T22:45:19.192Z,90.43
2024-02-02T22:47:47.334Z,90.26
2024-02-02T22:50:15.660Z,90.08
2024-02-02T22:52:44.834Z,90.12
2024-02-02T22:55:12.926Z,89.92
2024-02-02T22:57:41.659Z,89.85
2024-02-02T23:00:19.566Z,89.74
2024-02-02T23:02:48.005Z,89.63
2024-02-02T23:05:16.348Z,89.66
2024-02-02T23:07:44.514Z,89.70
2024-02-02T23:10:12.905Z,89.56
2024-02-02T23:12:40.929Z,89.61
2024-02-02T23:15:09.383Z,89.67
2024-02-02T23:17:38.052Z,89.56
2024-02-02T23:20:07.816Z,89.57
2024-02-02T23:22:36.243Z,89.68
2024-02-02T23:25:04.598Z,89.78
2024-02-02T23:27:34.016Z,89.70
2024-02-02T23:30:05.321Z,89.68
2024-02-02T23:32:33.368Z,89.57
2024-02-02T23:35:01.556Z,89.43
2024-02-02T23:37:30.363Z,89.36
2024-02-02T23:39:58.448Z,89.32
2024-02-02T23:42:26.837Z,89.28
2024-02-02T23:44:54.994Z,89.14
2024-02-02T23:47:23.283Z,89.02
2024-02-02T23:49:51.359Z,89.12
2024-02-02T23:52:19.716Z,88.96
2024-02-02T23:54:48.068Z,88.79
2024-02-02T23:57:22.070Z,88.56
2024-02-02T23:59:50.283Z,88.49
